Time,TemperatureF,DewpointF,PressureIn,WindDirection,WindDirectionDegrees,WindSpeedMPH,WindSpeedGustMPH,Humidity,HourlyPrecipIn,Conditions,Clouds,dailyrainin,SoftwareType,DateUTC
2013-05-27 00:03:00,45.0,39.0,30.16,North,4,0.0,-999.0,80,-99.99,,,-99.99,,2013-05-27 04:03:00,
2013-05-27 00:12:00,45.0,39.0,30.16,North,4,0.0,-999.0,80,-99.99,,,-99.99,,2013-05-27 04:12:00,
2013-05-27 00:23:00,45.0,39.0,30.17,North,4,0.0,-999.0,80,-99.99,,,-99.99,,2013-05-27 04:23:00,
2013-05-27 00:33:00,45.0,39.0,30.16,North,4,0.0,-999.0,79,-99.99,,,-99.99,,2013-05-27 04:33:00,
2013-05-27 00:43:00,45.0,39.0,30.17,North,359,0.0,-999.0,78,-99.99,,,-99.99,,2013-05-27 04:43:00,
2013-05-27 00:52:00,45.0,39.0,30.17,North,359,0.0,-999.0,78,-99.99,,,-99.99,,2013-05-27 04:52:00,
2013-05-27 01:02:00,45.0,38.0,30.17,North,359,0.0,-999.0,77,-99.99,,,-99.99,,2013-05-27 05:02:00,
2013-05-27 01:12:00,45.0,38.0,30.17,North,359,0.0,-999.0,77,-99.99,,,-99.99,,2013-05-27 05:12:00,
2013-05-27 01:22:00,44.0,37.0,30.17,North,4,0.0,-999.0,77,-99.99,,,-99.99,,2013-05-27 05:22:00,
2013-05-27 01:32:00,44.0,37.0,30.17,North,4,0.0,-999.0,77,-99.99,,,-99.99,,2013-05-27 05:32:00,
2013-05-27 01:42:00,44.0,37.0,30.17,North,4,0.0,-999.0,77,-99.99,,,-99.99,,2013-05-27 05:42:00,
2013-05-27 01:52:00,44.0,37.0,30.17,North,359,0.0,-999.0,77,-99.99,,,-99.99,,2013-05-27 05:52:00,
2013-05-27 02:02:00,44.0,37.0,30.17,North,4,0.0,-999.0,77,-99.99,,,-99.99,,2013-05-27 06:02:00,
2013-05-27 02:11:00,44.0,37.0,30.17,North,4,0.0,-999.0,77,-99.99,,,-99.99,,2013-05-27 06:11:00,
2013-05-27 02:22:00,45.0,38.0,30.17,WSW,247,0.0,-999.0,75,-99.99,,,-99.99,,2013-05-27 06:22:00,
2013-05-27 02:32:00,45.0,37.0,30.17,WSW,248,0.0,-999.0,74,-99.99,,,-99.99,,2013-05-27 06:32:00,
2013-05-27 02:42:00,45.0,37.0,30.17,WSW,249,0.0,-999.0,74,-99.99,,,-99.99,,2013-05-27 06:42:00,
2013-05-27 02:52:00,45.0,37.0,30.17,WSW,249,0.0,-999.0,74,-99.99,,,-99.99,,2013-05-27 06:52:00,
2013-05-27 03:02:00,44.0,36.0,30.17,WSW,247,0.0,-999.0,73,-99.99,,,-99.99,,2013-05-27 07:02:00,
2013-05-27 03:11:00,44.0,36.0,30.17,WSW,247,0.0,-999.0,74,-99.99,,,-99.99,,2013-05-27 07:11:00,
2013-05-27 03:21:00,44.0,36.0,30.17,WSW,247,0.0,-999.0,74,-99.99,,,-99.99,,2013-05-27 07:21:00,
2013-05-27 03:32:00,44.0,36.0,30.17,WSW,244,0.0,-999.0,72,-99.99,,,-99.99,,2013-05-27 07:32:00,
2013-05-27 03:42:00,44.0,36.0,30.17,WSW,244,0.0,-999.0,72,-99.99,,,-99.99,,2013-05-27 07:42:00,
2013-05-27 03:52:00,45.0,37.0,30.17,WSW,245,0.0,-999.0,72,-99.99,,,-99.99,,2013-05-27 07:52:00,
2013-05-27 04:02:00,45.0,37.0,30.17,West,262,0.0,-999.0,72,-99.99,,,-99.99,,2013-05-27 08:02:00,
2013-05-27 04:11:00,45.0,37.0,30.17,West,262,0.0,-999.0,72,-99.99,,,-99.99,,2013-05-27 08:11:00,
2013-05-27 04:22:00,44.0,36.0,30.17,West,262,0.0,-999.0,72,-99.99,,,-99.99,,2013-05-27 08:22:00,
2013-05-27 04:33:00,44.0,36.0,30.17,West,262,0.0,-999.0,73,-99.99,,,-99.99,,2013-05-27 08:33:00,
2013-05-27 04:42:00,44.0,36.0,30.17,West,262,0.0,-999.0,73,-99.99,,,-99.99,,2013-05-27 08:42:00,
2013-05-27 04:52:00,44.0,36.0,30.17,West,261,0.0,-999.0,73,-99.99,,,-99.99,,2013-05-27 08:52:00,
2013-05-27 05:02:00,44.0,36.0,30.18,NNW,347,0.0,-999.0,73,-99.99,,,-99.99,,2013-05-27 09:02:00,
2013-05-27 05:11:00,44.0,36.0,30.17,NNW,345,0.0,-999.0,73,-99.99,,,-99.99,,2013-05-27 09:11:00,
2013-05-27 05:22:00,44.0,36.0,30.17,NNW,345,0.0,-999.0,73,-99.99,,,-99.99,,2013-05-27 09:22:00,
2013-05-27 05:33:00,44.0,36.0,30.18,NNW,345,0.0,-999.0,73,-99.99,,,-99.99,,2013-05-27 09:33:00,
2013-05-27 05:42:00,44.0,36.0,30.18,NNW,345,0.0,-999.0,73,-99.99,,,-99.99,,2013-05-27 09:42:00,
2013-05-27 05:53:00,43.0,35.0,30.18,NNW,345,0.0,-999.0,73,-99.99,,,-99.99,,2013-05-27 09:53:00,
2013-05-27 06:03:00,43.0,35.0,30.19,NNW,345,0.0,-999.0,74,-99.99,,,-99.99,,2013-05-27 10:03:00,
2013-05-27 06:12:00,43.0,35.0,30.19,NNW,345,0.0,-999.0,74,-99.99,,,-99.99,,2013-05-27 10:12:00,
2013-05-27 06:23:00,43.0,35.0,30.19,NNW,344,0.0,-999.0,73,-99.99,,,-99.99,,2013-05-27 10:23:00,
2013-05-27 06:32:00,44.0,36.0,30.19,NNW,343,0.0,-999.0,72,-99.99,,,-99.99,,2013-05-27 10:32:00,
2013-05-27 06:42:00,44.0,36.0,30.19,NNW,343,0.0,-999.0,72,-99.99,,,-99.99,,2013-05-27 10:42:00,
2013-05-27 06:52:00,44.0,35.0,30.19,NNW,343,0.0,-999.0,71,-99.99,,,-99.99,,2013-05-27 10:52:00,
2013-05-27 07:02:00,45.0,36.0,30.19,NNW,339,0.0,-999.0,70,-99.99,,,-99.99,,2013-05-27 11:02:00,
2013-05-27 07:11:00,45.0,36.0,30.19,NNW,339,0.0,-999.0,70,-99.99,,,-99.99,,2013-05-27 11:11:00,
2013-05-27 07:22:00,46.0,37.0,30.20,NW,326,0.0,-999.0,70,-99.99,,,-99.99,,2013-05-27 11:22:00,
2013-05-27 07:32:00,46.0,37.0,30.20,NW,326,0.0,-999.0,70,-99.99,,,-99.99,,2013-05-27 11:32:00,
2013-05-27 07:42:00,46.0,37.0,30.20,NW,326,0.0,-999.0,70,-99.99,,,-99.99,,2013-05-27 11:42:00,
2013-05-27 07:52:00,47.0,37.0,30.21,NW,322,0.0,-999.0,68,-99.99,,,-99.99,,2013-05-27 11:52:00,
2013-05-27 08:01:00,48.0,37.0,30.21,NW,321,0.0,-999.0,66,-99.99,,,-99.99,,2013-05-27 12:01:00,
2013-05-27 08:11:00,48.0,37.0,30.21,NW,321,0.0,-999.0,66,-99.99,,,-99.99,,2013-05-27 12:11:00,
2013-05-27 08:22:00,49.0,38.0,30.22,NW,315,1.0,-999.0,65,-99.99,,,-99.99,,2013-05-27 12:22:00,
2013-05-27 08:32:00,50.0,38.0,30.22,NNW,343,1.0,-999.0,63,-99.99,,,-99.99,,2013-05-27 12:32:00,
2013-05-27 08:42:00,50.0,38.0,30.22,NNW,343,1.0,-999.0,63,-99.99,,,-99.99,,2013-05-27 12:42:00,
2013-05-27 08:52:00,51.0,39.0,30.21,NNW,335,1.0,-999.0,63,-99.99,,,-99.99,,2013-05-27 12:52:00,
2013-05-27 09:02:00,52.0,39.0,30.22,NNE,27,1.0,-999.0,62,-99.99,,,-99.99,,2013-05-27 13:02:00,
2013-05-27 09:11:00,52.0,39.0,30.22,NNE,27,1.0,-999.0,62,-99.99,,,-99.99,,2013-05-27 13:11:00,
2013-05-27 09:22:00,53.0,39.0,30.22,North,8,0.0,-999.0,60,-99.99,,,-99.99,,2013-05-27 13:22:00,
2013-05-27 09:32:00,54.0,40.0,30.22,NNW,337,0.0,-999.0,59,-99.99,,,-99.99,,2013-05-27 13:32:00,
2013-05-27 09:42:00,54.0,40.0,30.22,NNW,337,0.0,-999.0,59,-99.99,,,-99.99,,2013-05-27 13:42:00,
2013-05-27 09:52:00,56.0,41.0,30.21,North,359,1.0,-999.0,56,-99.99,,,-99.99,,2013-05-27 13:52:00,
2013-05-27 10:02:00,58.0,41.0,30.21,NW,314,1.0,-999.0,54,-99.99,,,-99.99,,2013-05-27 14:02:00,
2013-05-27 10:11:00,58.0,41.0,30.21,NW,314,1.0,-999.0,54,-99.99,,,-99.99,,2013-05-27 14:11:00,
2013-05-27 10:22:00,59.0,43.0,30.21,North,4,0.0,-999.0,55,-99.99,,,-99.99,,2013-05-27 14:22:00,
2013-05-27 10:32:00,61.0,40.0,30.21,NW,312,2.0,-999.0,45,-99.99,,,-99.99,,2013-05-27 14:32:00,
2013-05-27 10:42:00,61.0,40.0,30.21,NW,312,2.0,-999.0,45,-99.99,,,-99.99,,2013-05-27 14:42:00,
2013-05-27 10:52:00,61.0,41.0,30.21,NNW,345,2.0,-999.0,48,-99.99,,,-99.99,,2013-05-27 14:52:00,
2013-05-27 11:02:00,62.0,39.0,30.21,NE,50,3.0,-999.0,42,-99.99,,,-99.99,,2013-05-27 15:02:00,
2013-05-27 11:11:00,63.0,38.0,30.20,NNE,31,3.0,-999.0,39,-99.99,,,-99.99,,2013-05-27 15:11:00,
2013-05-27 11:22:00,63.0,38.0,30.20,NNE,31,3.0,-999.0,39,-99.99,,,-99.99,,2013-05-27 15:22:00,
2013-05-27 11:33:00,63.0,38.0,30.21,WSW,252,3.0,-999.0,40,-99.99,,,-99.99,,2013-05-27 15:33:00,
2013-05-27 11:43:00,63.0,38.0,30.21,WSW,252,3.0,-999.0,40,-99.99,,,-99.99,,2013-05-27 15:43:00,
2013-05-27 11:53:00,64.0,37.0,30.20,NNE,31,2.0,-999.0,37,-99.99,,,-99.99,,2013-05-27 15:53:00,
2013-05-27 12:03:00,64.0,38.0,30.19,NNE,19,4.0,-999.0,38,-99.99,,,-99.99,,2013-05-27 16:03:00,
2013-05-27 12:12:00,64.0,38.0,30.19,NNE,19,4.0,-999.0,38,-99.99,,,-99.99,,2013-05-27 16:12:00,
2013-05-27 12:23:00,65.0,39.0,30.19,NE,50,3.0,-999.0,38,-99.99,,,-99.99,,2013-05-27 16:23:00,
2013-05-27 12:33:00,66.0,38.0,30.19,NE,52,3.0,-999.0,36,-99.99,,,-99.99,,2013-05-27 16:33:00,
2013-05-27 12:42:00,66.0,38.0,30.19,NE,52,3.0,-999.0,36,-99.99,,,-99.99,,2013-05-27 16:42:00,
2013-05-27 12:52:00,66.0,38.0,30.18,North,10,3.0,-999.0,36,-99.99,,,-99.99,,2013-05-27 16:52:00,
2013-05-27 13:02:00,66.0,38.0,30.18,ESE,108,2.0,-999.0,35,-99.99,,,-99.99,,2013-05-27 17:02:00,
2013-05-27 13:12:00,66.0,36.0,30.17,ENE,78,2.0,-999.0,33,-99.99,,,-99.99,,2013-05-27 17:12:00,
2013-05-27 13:22:00,66.0,36.0,30.17,ENE,78,2.0,-999.0,33,-99.99,,,-99.99,,2013-05-27 17:22:00,
2013-05-27 13:32:00,66.0,36.0,30.17,North,10,4.0,-999.0,33,-99.99,,,-99.99,,2013-05-27 17:32:00,
2013-05-27 13:43:00,66.0,36.0,30.17,North,10,4.0,-999.0,33,-99.99,,,-99.99,,2013-05-27 17:43:00,
2013-05-27 13:52:00,67.0,36.0,30.16,NNW,339,4.0,-999.0,32,-99.99,,,-99.99,,2013-05-27 17:52:00,
2013-05-27 14:02:00,68.0,38.0,30.16,West,276,3.0,-999.0,33,-99.99,,,-99.99,,2013-05-27 18:02:00,
2013-05-27 14:11:00,68.0,38.0,30.16,West,276,3.0,-999.0,33,-99.99,,,-99.99,,2013-05-27 18:11:00,
2013-05-27 14:22:00,67.0,40.0,30.16,NNW,341,2.0,-999.0,37,-99.99,,,-99.99,,2013-05-27 18:22:00,
2013-05-27 14:32:00,68.0,41.0,30.15,SSW,201,1.0,-999.0,37,-99.99,,,-99.99,,2013-05-27 18:32:00,
2013-05-27 14:42:00,68.0,41.0,30.15,SSW,201,1.0,-999.0,37,-99.99,,,-99.99,,2013-05-27 18:42:00,
2013-05-27 14:52:00,69.0,42.0,30.14,WNW,301,1.0,-999.0,37,-99.99,,,-99.99,,2013-05-27 18:52:00,
2013-05-27 15:01:00,69.0,39.0,30.14,NE,45,3.0,-999.0,34,-99.99,,,-99.99,,2013-05-27 19:01:00,
2013-05-27 15:11:00,69.0,39.0,30.14,NE,45,3.0,-999.0,34,-99.99,,,-99.99,,2013-05-27 19:11:00,
2013-05-27 15:22:00,70.0,42.0,30.14,NNE,29,1.0,-999.0,36,-99.99,,,-99.99,,2013-05-27 19:22:00,
2013-05-27 15:32:00,69.0,39.0,30.13,NE,37,2.0,-999.0,34,-99.99,,,-99.99,,2013-05-27 19:32:00,
2013-05-27 15:42:00,69.0,39.0,30.13,NE,37,2.0,-999.0,34,-99.99,,,-99.99,,2013-05-27 19:42:00,
2013-05-27 15:52:00,69.0,39.0,30.13,WSW,250,2.0,-999.0,34,-99.99,,,-99.99,,2013-05-27 19:52:00,
2013-05-27 16:02:00,70.0,40.0,30.12,WNW,291,2.0,-999.0,33,-99.99,,,-99.99,,2013-05-27 20:02:00,
2013-05-27 16:11:00,70.0,40.0,30.12,WNW,291,2.0,-999.0,33,-99.99,,,-99.99,,2013-05-27 20:11:00,
2013-05-27 16:22:00,70.0,39.0,30.12,West,262,1.0,-999.0,32,-99.99,,,-99.99,,2013-05-27 20:22:00,
2013-05-27 16:32:00,70.0,36.0,30.12,WNW,297,2.0,-999.0,29,-99.99,,,-99.99,,2013-05-27 20:32:00,
2013-05-27 16:42:00,71.0,38.0,30.12,SE,126,2.0,-999.0,30,-99.99,,,-99.99,,2013-05-27 20:42:00,
2013-05-27 16:52:00,71.0,38.0,30.12,SE,126,2.0,-999.0,30,-99.99,,,-99.99,,2013-05-27 20:52:00,
2013-05-27 17:01:00,71.0,38.0,30.11,NE,41,1.0,-999.0,30,-99.99,,,-99.99,,2013-05-27 21:01:00,
2013-05-27 17:12:00,71.0,38.0,30.11,WSW,256,3.0,-999.0,30,-99.99,,,-99.99,,2013-05-27 21:12:00,
2013-05-27 17:21:00,71.0,38.0,30.11,WSW,256,3.0,-999.0,30,-99.99,,,-99.99,,2013-05-27 21:21:00,
2013-05-27 17:33:00,71.0,39.0,30.11,NNW,328,2.0,-999.0,31,-99.99,,,-99.99,,2013-05-27 21:33:00,
2013-05-27 17:43:00,71.0,37.0,30.11,NE,37,1.0,-999.0,29,-99.99,,,-99.99,,2013-05-27 21:43:00,
2013-05-27 17:53:00,71.0,37.0,30.11,NE,37,1.0,-999.0,29,-99.99,,,-99.99,,2013-05-27 21:53:00,
2013-05-27 18:02:00,71.0,38.0,30.11,North,4,1.0,-999.0,30,-99.99,,,-99.99,,2013-05-27 22:02:00,
2013-05-27 18:13:00,71.0,37.0,30.12,NNE,20,1.0,-999.0,29,-99.99,,,-99.99,,2013-05-27 22:13:00,
2013-05-27 18:23:00,71.0,37.0,30.12,NNE,20,1.0,-999.0,29,-99.99,,,-99.99,,2013-05-27 22:23:00,
2013-05-27 18:33:00,71.0,36.0,30.11,ENE,64,0.0,-999.0,28,-99.99,,,-99.99,,2013-05-27 22:33:00,
2013-05-27 18:42:00,71.0,36.0,30.11,ENE,64,0.0,-999.0,28,-99.99,,,-99.99,,2013-05-27 22:42:00,
2013-05-27 18:52:00,70.0,37.0,30.11,SSE,156,0.0,-999.0,30,-99.99,,,-99.99,,2013-05-27 22:52:00,
2013-05-27 19:02:00,70.0,38.0,30.11,NNW,333,0.0,-999.0,31,-99.99,,,-99.99,,2013-05-27 23:02:00,
2013-05-27 19:12:00,70.0,38.0,30.11,NNW,333,0.0,-999.0,31,-99.99,,,-99.99,,2013-05-27 23:12:00,
2013-05-27 19:22:00,69.0,38.0,30.11,SW,224,0.0,-999.0,32,-99.99,,,-99.99,,2013-05-27 23:22:00,
2013-05-27 19:32:00,69.0,39.0,30.12,SW,224,0.0,-999.0,33,-99.99,,,-99.99,,2013-05-27 23:32:00,
2013-05-27 19:42:00,69.0,39.0,30.12,SW,224,0.0,-999.0,33,-99.99,,,-99.99,,2013-05-27 23:42:00,
2013-05-27 19:52:00,68.0,39.0,30.12,WSW,241,0.0,-999.0,35,-99.99,,,-99.99,,2013-05-27 23:52:00,
2013-05-27 20:01:00,67.0,40.0,30.12,WSW,241,0.0,-999.0,37,-99.99,,,-99.99,,2013-05-28 00:01:00,
2013-05-27 20:11:00,67.0,40.0,30.12,WSW,241,0.0,-999.0,37,-99.99,,,-99.99,,2013-05-28 00:11:00,
2013-05-27 20:22:00,65.0,40.0,30.12,WSW,241,0.0,-999.0,40,-99.99,,,-99.99,,2013-05-28 00:22:00,
2013-05-27 20:32:00,64.0,39.0,30.12,WSW,241,0.0,-999.0,40,-99.99,,,-99.99,,2013-05-28 00:32:00,
2013-05-27 20:42:00,64.0,39.0,30.12,WSW,241,0.0,-999.0,40,-99.99,,,-99.99,,2013-05-28 00:42:00,
2013-05-27 20:52:00,63.0,38.0,30.12,WSW,241,0.0,-999.0,40,-99.99,,,-99.99,,2013-05-28 00:52:00,
2013-05-27 21:01:00,62.0,40.0,30.12,WSW,241,0.0,-999.0,44,-99.99,,,-99.99,,2013-05-28 01:01:00,
2013-05-27 21:11:00,62.0,40.0,30.12,WSW,241,0.0,-999.0,44,-99.99,,,-99.99,,2013-05-28 01:11:00,
2013-05-27 21:22:00,60.0,42.0,30.13,WSW,241,0.0,-999.0,51,-99.99,,,-99.99,,2013-05-28 01:22:00,
2013-05-27 21:32:00,59.0,43.0,30.14,East,93,0.0,-999.0,55,-99.99,,,-99.99,,2013-05-28 01:32:00,
2013-05-27 21:42:00,59.0,43.0,30.14,East,93,0.0,-999.0,55,-99.99,,,-99.99,,2013-05-28 01:42:00,
2013-05-27 21:52:00,58.0,45.0,30.14,East,93,0.0,-999.0,61,-99.99,,,-99.99,,2013-05-28 01:52:00,
2013-05-27 22:02:00,56.0,44.0,30.14,East,93,0.0,-999.0,63,-99.99,,,-99.99,,2013-05-28 02:02:00,
2013-05-27 22:11:00,56.0,44.0,30.14,East,93,0.0,-999.0,63,-99.99,,,-99.99,,2013-05-28 02:11:00,
2013-05-27 22:22:00,55.0,43.0,30.15,East,93,0.0,-999.0,64,-99.99,,,-99.99,,2013-05-28 02:22:00,
2013-05-27 22:32:00,55.0,43.0,30.16,East,93,0.0,-999.0,63,-99.99,,,-99.99,,2013-05-28 02:32:00,
2013-05-27 22:42:00,55.0,43.0,30.16,East,93,0.0,-999.0,63,-99.99,,,-99.99,,2013-05-28 02:42:00,
2013-05-27 22:52:00,55.0,44.0,30.16,East,93,0.0,-999.0,66,-99.99,,,-99.99,,2013-05-28 02:52:00,
2013-05-27 23:01:00,55.0,44.0,30.16,East,93,0.0,-999.0,67,-99.99,,,-99.99,,2013-05-28 03:01:00,
2013-05-27 23:11:00,55.0,44.0,30.16,East,93,0.0,-999.0,67,-99.99,,,-99.99,,2013-05-28 03:11:00,
2013-05-27 23:22:00,54.0,43.0,30.16,East,93,0.0,-999.0,66,-99.99,,,-99.99,,2013-05-28 03:22:00,
2013-05-27 23:33:00,53.0,43.0,30.17,East,93,0.0,-999.0,69,-99.99,,,-99.99,,2013-05-28 03:33:00,
2013-05-27 23:43:00,53.0,43.0,30.17,East,93,0.0,-999.0,69,-99.99,,,-99.99,,2013-05-28 03:43:00,
2013-05-27 23:53:00,53.0,43.0,30.18,East,93,0.0,-999.0,70,-99.99,,,-99.99,,2013-05-28 03:53:00,